createdAt,value
2023-02-18T00:00:22.335Z,11.30
2023-02-18T00:01:22.360Z,10.70
2023-02-18T00:02:22.347Z,10.90
2023-02-18T00:03:22.353Z,10.60
2023-02-18T00:04:22.283Z,10.20
2023-02-18T00:05:22.267Z,11.30
2023-02-18T00:06:22.277Z,11.20
2023-02-18T00:07:22.242Z,11.40
2023-02-18T00:08:22.234Z,12.40
2023-02-18T00:09:22.221Z,11.60
2023-02-18T00:10:22.206Z,11.90
2023-02-18T00:11:22.203Z,12.90
2023-02-18T00:12:22.180Z,11.80
2023-02-18T00:13:22.162Z,11.00
2023-02-18T00:14:22.148Z,11.30
2023-02-18T00:15:22.144Z,11.40
2023-02-18T00:16:22.143Z,11.70
2023-02-18T00:17:22.135Z,11.30
2023-02-18T00:18:22.099Z,12.80
2023-02-18T00:19:22.091Z,11.70
2023-02-18T00:20:22.077Z,12.60
2023-02-18T00:21:22.076Z,11.70
2023-02-18T00:22:22.046Z,12.70
2023-02-18T00:23:22.035Z,11.60
2023-02-18T00:24:22.021Z,10.90
2023-02-18T00:25:22.013Z,10.90
2023-02-18T00:26:22.013Z,11.40
2023-02-18T00:27:21.981Z,10.60
2023-02-18T00:28:21.969Z,10.60
2023-02-18T00:29:21.957Z,11.80
2023-02-18T00:30:21.997Z,10.30
2023-02-18T00:31:22.099Z,10.40
2023-02-18T00:32:21.948Z,12.60
2023-02-18T00:33:21.928Z,10.80
2023-02-18T00:34:21.894Z,11.90
2023-02-18T00:35:21.882Z,10.40
2023-02-18T00:36:21.868Z,10.60
2023-02-18T00:37:21.867Z,9.70
2023-02-18T00:38:21.838Z,10.80
2023-02-18T00:39:21.829Z,10.30
2023-02-18T00:40:21.814Z,10.60
2023-02-18T00:41:21.796Z,11.60
2023-02-18T00:42:21.808Z,10.70
2023-02-18T00:43:21.771Z,10.60
2023-02-18T00:44:21.760Z,10.30
2023-02-18T00:45:21.774Z,10.50
2023-02-18T00:46:22.507Z,9.40
2023-02-18T00:47:21.738Z,7.80
2023-02-18T00:48:21.708Z,9.00
2023-02-18T00:49:21.720Z,8.90
2023-02-18T00:50:21.690Z,9.60
2023-02-18T00:51:21.675Z,8.30
2023-02-18T00:52:21.677Z,8.60
2023-02-18T00:53:21.647Z,8.70
2023-02-18T00:54:21.636Z,7.40
2023-02-18T00:55:21.626Z,7.70
2023-02-18T00:56:21.616Z,7.30
2023-02-18T00:57:21.623Z,6.90
2023-02-18T00:58:21.580Z,6.70
2023-02-18T00:59:21.566Z,6.20
2023-02-18T01:00:21.555Z,6.20
2023-02-18T01:01:21.579Z,6.20
2023-02-18T01:02:21.567Z,5.50
2023-02-18T01:03:21.517Z,6.40
2023-02-18T01:04:21.519Z,5.90
2023-02-18T01:05:21.519Z,6.70
2023-02-18T01:06:21.479Z,6.60
2023-02-18T01:07:21.479Z,6.90
2023-02-18T01:08:21.450Z,7.50
2023-02-18T01:09:21.448Z,7.40
2023-02-18T01:10:21.427Z,7.10
2023-02-18T01:11:21.430Z,7.80
2023-02-18T01:12:21.413Z,9.10
2023-02-18T01:13:21.386Z,8.50
2023-02-18T01:14:21.375Z,9.30
2023-02-18T01:15:21.366Z,14.00
2023-02-18T01:16:21.391Z,8.40
2023-02-18T01:17:21.358Z,8.70
2023-02-18T01:18:21.320Z,8.60
2023-02-18T01:19:21.310Z,8.80
2023-02-18T01:20:21.302Z,8.80
2023-02-18T01:21:21.308Z,10.70
2023-02-18T01:22:21.299Z,9.00
2023-02-18T01:23:21.260Z,8.80
2023-02-18T01:24:21.247Z,9.50
2023-02-18T01:25:21.230Z,9.00
2023-02-18T01:26:21.224Z,9.00
2023-02-18T01:27:21.228Z,9.00
2023-02-18T01:28:21.201Z,9.10
2023-02-18T01:29:21.182Z,9.30
2023-02-18T01:30:21.287Z,10.00
2023-02-18T01:31:21.276Z,10.10
2023-02-18T01:32:21.174Z,9.50
2023-02-18T01:33:21.125Z,9.30
2023-02-18T01:34:21.114Z,10.30
2023-02-18T01:35:21.106Z,9.80
2023-02-18T01:36:21.088Z,9.40
2023-02-18T01:37:21.098Z,10.30
2023-02-18T01:38:21.079Z,11.10
2023-02-18T01:39:21.043Z,11.40
2023-02-18T01:40:21.034Z,11.40
2023-02-18T01:41:21.023Z,9.90
2023-02-18T01:42:21.003Z,10.70
2023-02-18T01:43:21.002Z,12.10
2023-02-18T01:44:20.997Z,11.60
2023-02-18T01:45:20.966Z,9.70
2023-02-18T01:46:21.001Z,10.50
2023-02-18T01:47:20.944Z,10.70
2023-02-18T01:48:20.939Z,11.10
2023-02-18T01:49:20.914Z,11.00
2023-02-18T01:50:20.896Z,10.10
2023-02-18T01:51:20.884Z,10.80
2023-02-18T01:52:20.870Z,10.50
2023-02-18T01:53:20.895Z,10.40
2023-02-18T01:54:20.846Z,10.30
2023-02-18T01:55:20.841Z,9.60
2023-02-18T01:56:20.819Z,9.20
2023-02-18T01:57:20.811Z,9.30
2023-02-18T01:58:20.802Z,9.20
2023-02-18T01:59:20.780Z,8.60
2023-02-18T02:00:20.768Z,9.00
2023-02-18T02:01:20.754Z,10.00
2023-02-18T02:02:20.761Z,8.20
2023-02-18T02:03:20.741Z,8.10
2023-02-18T02:04:20.708Z,8.20
2023-02-18T02:05:20.707Z,8.20
2023-02-18T02:06:20.681Z,8.50
2023-02-18T02:07:20.672Z,7.90
2023-02-18T02:08:20.669Z,7.80
2023-02-18T02:09:20.661Z,7.30
2023-02-18T02:10:20.631Z,7.40
2023-02-18T02:11:20.620Z,8.40
2023-02-18T02:12:20.614Z,7.20
2023-02-18T02:13:20.609Z,7.90
2023-02-18T02:14:20.579Z,8.70
2023-02-18T02:15:20.586Z,7.90
2023-02-18T02:16:20.633Z,7.30
2023-02-18T02:17:20.568Z,9.20
2023-02-18T02:18:20.569Z,7.80
2023-02-18T02:19:20.517Z,8.60
2023-02-18T02:20:20.500Z,7.40
2023-02-18T02:21:20.499Z,8.50
2023-02-18T02:22:20.478Z,7.00
2023-02-18T02:23:20.478Z,9.70
2023-02-18T02:24:20.451Z,7.00
2023-02-18T02:25:20.458Z,6.90
2023-02-18T02:26:20.426Z,6.90
2023-02-18T02:27:20.411Z,6.80
2023-02-18T02:28:20.423Z,6.80
2023-02-18T02:29:20.386Z,6.80
2023-02-18T02:30:20.432Z,6.20
2023-02-18T02:31:20.448Z,6.90
2023-02-18T02:32:20.340Z,6.60
2023-02-18T02:33:20.371Z,6.30
2023-02-18T02:34:20.313Z,6.60
2023-02-18T02:35:20.314Z,5.70
2023-02-18T02:36:20.290Z,6.40
2023-02-18T02:37:20.281Z,5.90
2023-02-18T02:38:20.298Z,5.20
2023-02-18T02:39:20.249Z,5.30
2023-02-18T02:40:20.272Z,5.10
2023-02-18T02:41:20.245Z,4.80
2023-02-18T02:42:20.211Z,4.60
2023-02-18T02:43:20.234Z,4.60
2023-02-18T02:44:20.193Z,4.40
2023-02-18T02:45:20.173Z,5.20
2023-02-18T02:46:20.168Z,4.80
2023-02-18T02:47:20.153Z,4.70
2023-02-18T02:48:20.138Z,4.50
2023-02-18T02:49:20.144Z,4.60
2023-02-18T02:50:20.118Z,3.10
2023-02-18T02:51:20.103Z,4.00
2023-02-18T02:52:20.088Z,4.50
2023-02-18T02:53:20.073Z,3.30
2023-02-18T02:54:20.188Z,3.70
2023-02-18T02:55:20.072Z,3.40
2023-02-18T02:56:20.039Z,3.70
2023-02-18T02:57:20.063Z,2.80
2023-02-18T02:58:20.009Z,2.90
2023-02-18T02:59:20.014Z,4.10
2023-02-18T03:00:19.981Z,2.40
2023-02-18T03:01:20.039Z,2.60
2023-02-18T03:02:19.956Z,2.80
2023-02-18T03:03:20.103Z,2.00
2023-02-18T03:04:19.972Z,2.10
2023-02-18T03:05:19.919Z,1.90
2023-02-18T03:06:19.902Z,2.90
2023-02-18T03:07:19.896Z,2.50
2023-02-18T03:08:19.880Z,1.80
2023-02-18T03:09:19.889Z,1.70
2023-02-18T03:10:19.859Z,1.40
2023-02-18T03:11:19.836Z,1.40
2023-02-18T03:12:19.835Z,1.50
2023-02-18T03:13:19.846Z,1.50
2023-02-18T03:14:19.815Z,1.50
2023-02-18T03:15:19.787Z,2.10
2023-02-18T03:16:19.802Z,2.20
2023-02-18T03:17:19.757Z,1.60
2023-02-18T03:18:19.747Z,1.90
2023-02-18T03:19:19.752Z,1.60
2023-02-18T03:20:19.727Z,2.00
2023-02-18T03:21:19.704Z,0.90
2023-02-18T03:22:19.688Z,2.00
2023-02-18T03:23:19.676Z,1.00
2023-02-18T03:24:19.698Z,1.60
2023-02-18T03:25:19.668Z,1.20
2023-02-18T03:26:19.642Z,1.70
2023-02-18T03:27:19.635Z,1.30
2023-02-18T03:28:19.612Z,1.70
2023-02-18T03:29:19.642Z,1.20
2023-02-18T03:30:19.629Z,2.00
2023-02-18T03:31:19.670Z,1.40
2023-02-18T03:32:19.638Z,1.30
2023-02-18T03:33:19.549Z,1.50
2023-02-18T03:34:19.546Z,1.70
2023-02-18T03:35:19.528Z,1.40
2023-02-18T03:36:19.510Z,2.70
2023-02-18T03:37:19.497Z,1.60
2023-02-18T03:38:19.490Z,1.80
2023-02-18T03:39:19.492Z,1.30
2023-02-18T03:40:19.458Z,1.50
2023-02-18T03:41:19.460Z,2.80
2023-02-18T03:42:19.459Z,2.60
2023-02-18T03:43:19.425Z,1.60
2023-02-18T03:44:19.431Z,1.70
2023-02-18T03:45:19.414Z,1.50
2023-02-18T03:46:19.431Z,1.70
2023-02-18T03:47:19.366Z,1.50
2023-02-18T03:48:19.355Z,1.40
2023-02-18T03:49:19.346Z,1.80
2023-02-18T03:50:19.353Z,2.00
2023-02-18T03:51:19.327Z,1.70
2023-02-18T03:52:19.303Z,1.70
2023-02-18T03:53:19.297Z,3.10
2023-02-18T03:54:19.274Z,1.70
2023-02-18T03:55:19.280Z,1.50
2023-02-18T03:56:19.248Z,3.30
2023-02-18T03:57:19.232Z,2.20
2023-02-18T03:58:19.233Z,1.60
2023-02-18T03:59:19.204Z,1.60
2023-02-18T04:00:19.219Z,2.00
2023-02-18T04:01:19.244Z,2.30
2023-02-18T04:02:19.171Z,1.90
2023-02-18T04:03:19.152Z,2.50
2023-02-18T04:04:19.221Z,3.20
2023-02-18T04:05:19.143Z,2.60
2023-02-18T04:06:19.120Z,2.80
2023-02-18T04:07:19.115Z,2.30
2023-02-18T04:08:19.091Z,2.10
2023-02-18T04:09:19.078Z,2.10
2023-02-18T04:10:19.088Z,2.30
2023-02-18T04:11:19.046Z,3.00
2023-02-18T04:12:19.039Z,2.20
2023-02-18T04:13:19.026Z,2.10
2023-02-18T04:14:19.016Z,2.20
2023-02-18T04:15:19.020Z,2.70
2023-02-18T04:16:19.048Z,2.50
2023-02-18T04:17:18.992Z,2.20
2023-02-18T04:18:18.958Z,2.50
2023-02-18T04:19:18.947Z,2.40
2023-02-18T04:20:18.948Z,2.30
2023-02-18T04:21:18.926Z,2.30
2023-02-18T04:22:18.908Z,2.70
2023-02-18T04:23:18.895Z,3.10
2023-02-18T04:24:18.887Z,2.30
2023-02-18T04:25:18.879Z,3.20
2023-02-18T04:26:18.856Z,2.30
2023-02-18T04:27:18.844Z,3.30
2023-02-18T04:28:18.836Z,2.80
2023-02-18T04:29:18.844Z,2.80
2023-02-18T04:30:19.156Z,2.30
2023-02-18T04:31:18.841Z,3.50
2023-02-18T04:32:18.783Z,3.00
2023-02-18T04:33:18.784Z,2.40
2023-02-18T04:34:18.758Z,2.50
2023-02-18T04:35:18.748Z,2.60
2023-02-18T04:36:18.728Z,2.50
2023-02-18T04:37:18.717Z,2.60
2023-02-18T04:38:18.701Z,3.20
2023-02-18T04:39:18.685Z,3.00
2023-02-18T04:40:18.688Z,3.10
2023-02-18T04:41:18.663Z,3.40
2023-02-18T04:42:18.661Z,4.50
2023-02-18T04:43:18.635Z,3.60
2023-02-18T04:44:18.631Z,3.40
2023-02-18T04:45:18.621Z,3.40
2023-02-18T04:46:18.669Z,4.40
2023-02-18T04:47:18.587Z,3.10
2023-02-18T04:48:18.571Z,3.60
2023-02-18T04:49:18.588Z,3.50
2023-02-18T04:50:18.562Z,3.40
2023-02-18T04:51:18.546Z,3.80
2023-02-18T04:52:18.530Z,4.50
2023-02-18T04:53:18.515Z,5.00
2023-02-18T04:54:18.487Z,3.50
2023-02-18T04:55:18.496Z,3.20
2023-02-18T04:56:18.468Z,3.20
2023-02-18T04:57:18.467Z,4.20
2023-02-18T04:58:18.445Z,4.30
2023-02-18T04:59:18.426Z,3.90
2023-02-18T05:00:18.446Z,3.50
2023-02-18T05:01:18.501Z,3.80
2023-02-18T05:02:18.474Z,4.10
2023-02-18T05:03:18.385Z,3.30
2023-02-18T05:04:18.408Z,3.30
2023-02-18T05:05:18.401Z,4.20
2023-02-18T05:06:18.340Z,4.20
2023-02-18T05:07:18.383Z,4.70
2023-02-18T05:08:18.312Z,4.90
2023-02-18T05:09:18.311Z,4.30
2023-02-18T05:10:18.311Z,4.80
2023-02-18T05:11:18.277Z,4.20
2023-02-18T05:12:18.268Z,4.20
2023-02-18T05:13:18.248Z,6.80
2023-02-18T05:14:18.242Z,5.70
2023-02-18T05:15:18.237Z,7.60
2023-02-18T05:16:18.208Z,6.80
2023-02-18T05:17:18.201Z,7.00
2023-02-18T05:18:18.194Z,7.10
2023-02-18T05:19:18.176Z,6.60
2023-02-18T05:20:18.174Z,8.00
2023-02-18T05:21:18.160Z,8.20
2023-02-18T05:22:18.135Z,8.30
2023-02-18T05:23:18.129Z,8.30
2023-02-18T05:24:18.115Z,8.30
2023-02-18T05:25:18.121Z,10.20
2023-02-18T05:26:18.077Z,10.30
2023-02-18T05:27:18.068Z,9.60
2023-02-18T05:28:18.059Z,10.40
2023-02-18T05:29:18.039Z,11.10
2023-02-18T05:30:18.076Z,11.80
2023-02-18T05:31:18.140Z,11.60
2023-02-18T05:32:18.001Z,11.20
2023-02-18T05:33:17.989Z,10.80
2023-02-18T05:34:17.974Z,12.30
2023-02-18T05:35:17.958Z,7.70
2023-02-18T05:36:17.960Z,10.40
2023-02-18T05:37:17.955Z,10.30
2023-02-18T05:38:17.944Z,11.30
2023-02-18T05:39:17.915Z,10.30
2023-02-18T05:40:17.896Z,9.80
2023-02-18T05:41:17.890Z,9.20
2023-02-18T05:42:17.876Z,10.00
2023-02-18T05:43:17.854Z,9.60
2023-02-18T05:44:17.840Z,8.80
2023-02-18T05:45:17.824Z,7.50
2023-02-18T05:46:17.852Z,7.80
2023-02-18T05:47:17.797Z,9.40
2023-02-18T05:48:17.783Z,7.70
2023-02-18T05:49:17.775Z,7.80
2023-02-18T05:50:17.773Z,6.60
2023-02-18T05:51:17.761Z,7.20
2023-02-18T05:52:17.737Z,8.90
2023-02-18T05:53:17.790Z,8.40
2023-02-18T05:54:17.710Z,6.50
2023-02-18T05:55:17.689Z,5.60
2023-02-18T05:56:17.690Z,7.60
2023-02-18T05:57:17.660Z,6.70
2023-02-18T05:58:17.656Z,5.00
2023-02-18T05:59:17.635Z,5.90
2023-02-18T06:00:17.627Z,5.80
2023-02-18T06:01:17.630Z,5.40
2023-02-18T06:02:17.719Z,5.70
2023-02-18T06:03:17.587Z,6.30
2023-02-18T06:04:17.578Z,5.50
2023-02-18T06:05:17.558Z,5.80
2023-02-18T06:06:17.608Z,4.80
2023-02-18T06:07:17.538Z,6.00
2023-02-18T06:08:17.533Z,6.00
2023-02-18T06:09:17.542Z,5.20
2023-02-18T06:10:17.501Z,5.40
2023-02-18T06:11:17.491Z,4.40
2023-02-18T06:12:17.463Z,4.20
2023-02-18T06:13:17.454Z,5.10
2023-02-18T06:14:17.439Z,6.10
2023-02-18T06:15:17.423Z,4.70
2023-02-18T06:16:17.453Z,5.40
2023-02-18T06:17:17.396Z,5.90
2023-02-18T06:18:17.392Z,5.30
2023-02-18T06:19:17.372Z,5.60
2023-02-18T06:20:17.366Z,5.50
2023-02-18T06:21:17.370Z,6.50
2023-02-18T06:22:17.339Z,6.30
2023-02-18T06:23:17.347Z,6.20
2023-02-18T06:24:17.310Z,5.80
2023-02-18T06:25:17.315Z,6.40
2023-02-18T06:26:17.319Z,7.00
2023-02-18T06:27:17.265Z,7.00
2023-02-18T06:28:17.261Z,6.20
2023-02-18T06:29:17.247Z,5.80
2023-02-18T06:30:17.258Z,6.20
2023-02-18T06:31:17.333Z,6.70
2023-02-18T06:32:17.296Z,6.30
2023-02-18T06:33:17.189Z,5.40
2023-02-18T06:34:17.172Z,6.40
2023-02-18T06:35:17.162Z,7.30
2023-02-18T06:36:17.162Z,5.20
2023-02-18T06:37:17.126Z,5.70
2023-02-18T06:38:17.119Z,6.50
2023-02-18T06:39:17.102Z,5.40
2023-02-18T06:40:17.087Z,5.50
2023-02-18T06:41:17.114Z,5.70
2023-02-18T06:42:17.069Z,3.80
2023-02-18T06:43:17.044Z,4.20
2023-02-18T06:44:17.047Z,4.30
2023-02-18T06:45:17.023Z,4.80
2023-02-18T06:46:17.048Z,4.70
2023-02-18T06:47:17.010Z,5.60
2023-02-18T06:48:17.045Z,4.30
2023-02-18T06:49:16.968Z,4.40
2023-02-18T06:50:16.953Z,4.30
2023-02-18T06:51:16.959Z,4.10
2023-02-18T06:52:16.927Z,3.50
2023-02-18T06:53:16.913Z,3.70
2023-02-18T06:54:16.899Z,4.60
2023-02-18T06:55:16.884Z,4.90
2023-02-18T06:56:16.893Z,3.80
2023-02-18T06:57:16.877Z,4.30
2023-02-18T06:58:16.847Z,4.20
2023-02-18T06:59:16.837Z,3.50
2023-02-18T07:00:16.825Z,3.90
2023-02-18T07:01:16.920Z,4.00
2023-02-18T07:02:16.802Z,4.20
2023-02-18T07:03:16.782Z,4.10
2023-02-18T07:04:16.773Z,4.20
2023-02-18T07:05:16.757Z,2.90
2023-02-18T07:06:16.770Z,3.40
2023-02-18T07:07:16.733Z,4.20
2023-02-18T07:08:16.806Z,2.90
2023-02-18T07:09:16.705Z,3.30
2023-02-18T07:10:16.717Z,4.10
2023-02-18T07:11:16.692Z,3.90
2023-02-18T07:12:16.664Z,3.00
2023-02-18T07:13:16.670Z,5.70
2023-02-18T07:14:16.652Z,5.50
2023-02-18T07:15:16.622Z,4.40
2023-02-18T07:16:16.669Z,2.70
2023-02-18T07:17:16.596Z,3.30
2023-02-18T07:18:16.625Z,2.70
2023-02-18T07:19:16.601Z,3.30
2023-02-18T07:20:16.563Z,3.30
2023-02-18T07:21:16.572Z,6.10
2023-02-18T07:22:16.575Z,3.20
2023-02-18T07:23:16.543Z,3.30
2023-02-18T07:24:16.550Z,3.90
2023-02-18T07:25:16.523Z,3.70
2023-02-18T07:26:16.494Z,3.30
2023-02-18T07:27:16.514Z,3.20
2023-02-18T07:28:16.495Z,5.10
2023-02-18T07:29:16.456Z,4.60
2023-02-18T07:30:16.450Z,3.30
2023-02-18T07:31:16.536Z,3.10
2023-02-18T07:32:16.823Z,3.00
2023-02-18T07:33:16.391Z,3.00
2023-02-18T07:34:16.380Z,3.10
2023-02-18T07:35:16.357Z,4.10
2023-02-18T07:36:16.354Z,4.10
2023-02-18T07:37:16.371Z,3.80
2023-02-18T07:38:16.332Z,3.00
2023-02-18T07:39:16.317Z,3.90
2023-02-18T07:40:16.297Z,3.10
2023-02-18T07:41:16.302Z,3.80
2023-02-18T07:42:16.284Z,3.20
2023-02-18T07:43:16.252Z,4.50
2023-02-18T07:44:16.246Z,2.80
2023-02-18T07:45:16.259Z,3.80
2023-02-18T07:46:16.268Z,3.50
2023-02-18T07:47:16.220Z,4.40
2023-02-18T07:48:16.188Z,3.30
2023-02-18T07:49:16.180Z,3.40
2023-02-18T07:50:16.176Z,3.80
2023-02-18T07:51:16.158Z,3.40
2023-02-18T07:52:16.161Z,3.30
2023-02-18T07:53:16.133Z,4.10
2023-02-18T07:54:16.114Z,3.90
2023-02-18T07:55:16.118Z,3.60
2023-02-18T07:56:16.090Z,4.50
2023-02-18T07:57:16.086Z,4.00
2023-02-18T07:58:16.059Z,3.30
2023-02-18T07:59:16.046Z,3.90
2023-02-18T08:00:16.032Z,3.20
2023-02-18T08:01:16.041Z,2.80
2023-02-18T08:02:16.119Z,3.60
2023-02-18T08:03:16.002Z,3.30
2023-02-18T08:04:16.042Z,3.40
2023-02-18T08:05:15.970Z,3.40
2023-02-18T08:06:15.956Z,3.50
2023-02-18T08:07:15.954Z,3.60
2023-02-18T08:08:15.939Z,5.10
2023-02-18T08:09:15.917Z,4.60
2023-02-18T08:10:15.906Z,2.60
2023-02-18T08:11:19.392Z,4.00
2023-02-18T08:12:15.890Z,3.70
2023-02-18T08:13:15.869Z,2.90
2023-02-18T08:14:15.861Z,2.90
2023-02-18T08:15:15.838Z,3.60
2023-02-18T08:16:15.885Z,2.60
2023-02-18T08:17:15.842Z,4.90
2023-02-18T08:18:15.801Z,3.20
2023-02-18T08:19:15.784Z,2.60
2023-02-18T08:20:15.769Z,2.30
2023-02-18T08:21:15.762Z,2.90
2023-02-18T08:22:15.759Z,3.70
2023-02-18T08:23:15.743Z,3.60
2023-02-18T08:24:15.719Z,3.50
2023-02-18T08:25:28.756Z,3.50
2023-02-18T08:26:15.696Z,3.20
2023-02-18T08:27:15.697Z,3.20
2023-02-18T08:28:15.669Z,4.50
2023-02-18T08:29:15.664Z,3.50
2023-02-18T08:30:15.683Z,3.60
2023-02-18T08:31:15.962Z,3.30
2023-02-18T08:32:15.653Z,3.30
2023-02-18T08:33:15.625Z,3.00
2023-02-18T08:34:15.595Z,3.50
2023-02-18T08:35:15.583Z,4.40
2023-02-18T08:36:15.571Z,3.30
2023-02-18T08:37:15.550Z,4.60
2023-02-18T08:38:15.546Z,3.80
2023-02-18T08:39:15.533Z,3.80
2023-02-18T08:40:15.503Z,3.80
2023-02-18T08:41:15.490Z,4.80
2023-02-18T08:42:15.477Z,3.80
2023-02-18T08:43:15.479Z,4.00
2023-02-18T08:44:15.455Z,3.50
2023-02-18T08:45:15.435Z,4.00
2023-02-18T08:46:16.533Z,3.80
2023-02-18T08:48:13.656Z,3.80
2023-02-18T08:48:20.335Z,3.60
2023-02-18T08:49:15.410Z,4.10
2023-02-18T08:50:15.376Z,4.20
2023-02-18T08:51:15.357Z,4.00
2023-02-18T08:52:15.345Z,4.20
2023-02-18T08:53:15.355Z,4.50
2023-02-18T08:54:15.312Z,4.10
2023-02-18T08:55:15.307Z,4.00
2023-02-18T08:56:15.290Z,4.10
2023-02-18T08:57:15.278Z,3.70
2023-02-18T08:58:15.278Z,3.80
2023-02-18T08:59:15.250Z,3.30
2023-02-18T09:00:15.511Z,4.70
2023-02-18T09:01:15.352Z,3.70
2023-02-18T09:02:15.232Z,4.40
2023-02-18T09:03:15.211Z,3.90
2023-02-18T09:04:15.219Z,4.20
2023-02-18T09:05:15.195Z,4.30
2023-02-18T09:06:15.164Z,3.80
2023-02-18T09:07:15.142Z,4.20
2023-02-18T09:08:15.156Z,4.20
2023-02-18T09:09:15.112Z,4.40
2023-02-18T09:10:15.095Z,4.10
2023-02-18T09:11:15.088Z,4.10
2023-02-18T09:12:15.072Z,3.90
2023-02-18T09:13:15.074Z,5.20
2023-02-18T09:14:15.046Z,3.30
2023-02-18T09:15:15.027Z,3.70
2023-02-18T09:16:15.027Z,3.80
2023-02-18T09:17:15.005Z,3.60
2023-02-18T09:18:15.004Z,3.40
2023-02-18T09:19:14.978Z,4.10
2023-02-18T09:20:14.960Z,4.10
2023-02-18T09:21:14.979Z,4.10
2023-02-18T09:22:14.977Z,3.50
2023-02-18T09:23:14.934Z,3.00
2023-02-18T09:24:14.908Z,3.20
2023-02-18T09:25:14.891Z,3.60
2023-02-18T09:26:14.886Z,4.60
2023-02-18T09:27:14.868Z,3.40
2023-02-18T09:28:14.865Z,4.30
2023-02-18T09:29:14.837Z,3.10
2023-02-18T09:30:14.899Z,3.10
2023-02-18T09:31:15.108Z,3.80
2023-02-18T09:32:22.615Z,3.30
2023-02-18T09:33:14.804Z,4.00
2023-02-18T09:34:14.768Z,3.60
2023-02-18T09:35:14.773Z,4.80
2023-02-18T09:36:14.743Z,3.60
2023-02-18T09:37:14.747Z,4.20
2023-02-18T09:38:14.720Z,3.60
2023-02-18T09:39:14.721Z,3.30
2023-02-18T09:40:15.533Z,3.70
2023-02-18T09:41:14.670Z,4.30
2023-02-18T09:42:14.657Z,4.60
2023-02-18T09:43:14.641Z,3.30
2023-02-18T09:44:14.688Z,3.00
2023-02-18T09:45:14.619Z,3.40
2023-02-18T09:46:14.657Z,3.30
2023-02-18T09:47:14.587Z,5.70
2023-02-18T09:48:14.570Z,3.30
2023-02-18T09:49:14.583Z,3.10
2023-02-18T09:50:14.547Z,2.60
2023-02-18T09:51:14.550Z,3.00
2023-02-18T09:52:14.530Z,2.40
2023-02-18T09:53:14.533Z,4.90
2023-02-18T09:54:14.564Z,3.20
2023-02-18T09:55:14.481Z,3.50
2023-02-18T09:56:14.469Z,3.00
2023-02-18T09:57:14.456Z,2.60
2023-02-18T09:58:14.442Z,2.80
2023-02-18T09:59:14.440Z,2.90
2023-02-18T10:00:14.419Z,2.20
2023-02-18T10:01:14.415Z,2.20
2023-02-18T10:02:14.385Z,1.80
2023-02-18T10:03:14.371Z,2.10
2023-02-18T10:04:14.383Z,1.60
2023-02-18T10:05:14.343Z,2.50
2023-02-18T10:06:14.332Z,2.90
2023-02-18T10:07:14.320Z,2.50
2023-02-18T10:08:14.344Z,1.60
2023-02-18T10:09:14.333Z,2.00
2023-02-18T10:10:14.280Z,1.20
2023-02-18T10:11:14.266Z,2.30
2023-02-18T10:12:14.264Z,1.90
2023-02-18T10:13:14.252Z,3.80
2023-02-18T10:14:14.247Z,0.90
2023-02-18T10:15:14.224Z,1.60
2023-02-18T10:16:14.284Z,1.90
2023-02-18T10:17:14.188Z,1.70
2023-02-18T10:18:14.170Z,1.40
2023-02-18T10:19:14.171Z,1.50
2023-02-18T10:20:14.136Z,1.30
2023-02-18T10:21:14.127Z,1.50
2023-02-18T10:22:15.193Z,1.60
2023-02-18T10:23:14.101Z,1.00
2023-02-18T10:24:14.103Z,1.40
2023-02-18T10:25:14.095Z,1.50
2023-02-18T10:26:14.067Z,1.10
2023-02-18T10:27:14.055Z,1.20
2023-02-18T10:28:14.036Z,1.20
2023-02-18T10:29:14.055Z,1.30
2023-02-18T10:30:14.078Z,1.60
2023-02-18T10:31:14.113Z,1.20
2023-02-18T10:32:14.054Z,0.60
2023-02-18T10:33:13.967Z,0.70
2023-02-18T10:34:13.970Z,1.10
2023-02-18T10:35:13.946Z,0.70
2023-02-18T10:36:13.925Z,1.50
2023-02-18T10:37:13.916Z,1.50
2023-02-18T10:38:13.904Z,0.60
2023-02-18T10:39:13.897Z,1.00
2023-02-18T10:40:13.868Z,1.30
2023-02-18T10:41:13.882Z,0.80
2023-02-18T10:42:13.846Z,1.00
2023-02-18T10:43:13.832Z,2.00
2023-02-18T10:44:13.826Z,0.50
2023-02-18T10:45:13.817Z,0.60
2023-02-18T10:46:13.974Z,1.30
2023-02-18T10:47:13.776Z,1.30
2023-02-18T10:48:13.761Z,1.40
2023-02-18T10:49:13.761Z,0.70
2023-02-18T10:50:13.750Z,1.60
2023-02-18T10:51:13.728Z,1.00
2023-02-18T10:52:13.705Z,1.00
2023-02-18T10:53:13.705Z,0.90
2023-02-18T10:54:13.710Z,1.50
2023-02-18T10:55:13.677Z,1.00
2023-02-18T10:56:13.678Z,1.00
2023-02-18T10:57:13.661Z,1.00
2023-02-18T10:58:13.626Z,1.00
2023-02-18T10:59:13.618Z,0.90
2023-02-18T11:00:13.612Z,1.10
2023-02-18T11:01:13.589Z,3.00
2023-02-18T11:02:13.573Z,1.80
2023-02-18T11:03:13.558Z,0.70
2023-02-18T11:04:13.540Z,2.00
2023-02-18T11:05:13.541Z,0.90
2023-02-18T11:06:13.512Z,0.60
2023-02-18T11:07:13.500Z,1.70
2023-02-18T11:08:13.494Z,0.60
2023-02-18T11:09:13.479Z,0.90
2023-02-18T11:10:13.477Z,1.20
2023-02-18T11:11:13.452Z,1.90
2023-02-18T11:12:13.441Z,1.80
2023-02-18T11:13:13.447Z,1.10
2023-02-18T11:14:13.416Z,1.70
2023-02-18T11:15:13.409Z,1.20
2023-02-18T11:16:14.441Z,0.80
2023-02-18T11:17:13.380Z,1.40
2023-02-18T11:18:13.357Z,1.00
2023-02-18T11:19:13.343Z,0.60
2023-02-18T11:20:13.347Z,0.80
2023-02-18T11:21:13.312Z,1.60
2023-02-18T11:22:13.302Z,0.70
2023-02-18T11:23:13.287Z,1.40
2023-02-18T11:24:13.277Z,0.40
2023-02-18T11:25:13.275Z,0.60
2023-02-18T11:26:13.246Z,1.00
2023-02-18T11:27:14.636Z,0.60
2023-02-18T11:28:13.228Z,1.00
2023-02-18T11:29:13.228Z,1.20
2023-02-18T11:30:13.245Z,0.90
2023-02-18T11:31:13.375Z,0.80
2023-02-18T11:32:13.371Z,0.80
2023-02-18T11:33:14.355Z,0.60
2023-02-18T11:34:13.143Z,2.60
2023-02-18T11:35:13.189Z,2.10
2023-02-18T11:36:13.124Z,0.80
2023-02-18T11:37:13.104Z,0.70
2023-02-18T11:38:13.090Z,0.70
2023-02-18T11:39:13.079Z,1.30
2023-02-18T11:40:13.079Z,0.80
2023-02-18T11:41:13.052Z,1.90
2023-02-18T11:42:13.033Z,1.50
2023-02-18T11:43:13.020Z,1.30
2023-02-18T11:44:13.004Z,1.00
2023-02-18T11:45:13.027Z,2.00
2023-02-18T11:46:12.985Z,1.10
2023-02-18T11:47:12.986Z,0.90
2023-02-18T11:48:12.953Z,2.00
2023-02-18T11:49:12.956Z,0.80
2023-02-18T11:50:12.944Z,2.90
2023-02-18T11:51:12.914Z,2.20
2023-02-18T11:52:12.902Z,3.00
2023-02-18T11:53:12.887Z,0.80
2023-02-18T11:54:12.870Z,1.70
2023-02-18T11:55:12.871Z,1.00
2023-02-18T11:56:12.849Z,0.90
2023-02-18T11:57:12.842Z,0.90
2023-02-18T11:58:12.827Z,0.70
2023-02-18T11:59:12.854Z,2.30
2023-02-18T12:00:12.816Z,1.70
2023-02-18T12:01:12.806Z,0.90
2023-02-18T12:02:12.828Z,1.10
2023-02-18T12:03:12.761Z,1.60
2023-02-18T12:04:12.747Z,2.50
2023-02-18T12:05:12.758Z,2.10
2023-02-18T12:06:12.715Z,4.70
2023-02-18T12:07:12.704Z,0.70
2023-02-18T12:08:12.693Z,1.20
2023-02-18T12:09:12.677Z,2.00
2023-02-18T12:10:12.679Z,1.30
2023-02-18T12:11:12.657Z,1.40
2023-02-18T12:12:12.637Z,1.10
2023-02-18T12:13:12.625Z,2.20
2023-02-18T12:14:12.616Z,1.40
2023-02-18T12:15:12.636Z,2.90
2023-02-18T12:16:12.607Z,0.80
2023-02-18T12:17:12.596Z,1.70
2023-02-18T12:18:12.566Z,0.70
2023-02-18T12:19:12.542Z,1.00
2023-02-18T12:20:12.629Z,2.60
2023-02-18T12:21:12.541Z,1.60
2023-02-18T12:22:12.509Z,0.70
2023-02-18T12:23:12.491Z,0.90
2023-02-18T12:24:12.520Z,1.60
2023-02-18T12:25:12.475Z,1.60
2023-02-18T12:26:12.464Z,2.80
2023-02-18T12:27:12.454Z,1.10
2023-02-18T12:28:12.423Z,1.70
2023-02-18T12:29:12.415Z,1.60
2023-02-18T12:30:12.586Z,1.40
2023-02-18T12:31:12.616Z,2.50
2023-02-18T12:32:12.470Z,2.90
2023-02-18T12:33:12.398Z,1.70
2023-02-18T12:34:12.369Z,1.00
2023-02-18T12:35:12.326Z,1.60
2023-02-18T12:36:12.332Z,1.20
2023-02-18T12:37:12.301Z,2.20
2023-02-18T12:38:12.289Z,1.10
2023-02-18T12:39:12.297Z,1.70
2023-02-18T12:40:12.328Z,1.70
2023-02-18T12:41:12.265Z,2.10
2023-02-18T12:42:12.244Z,1.70
2023-02-18T12:43:12.222Z,1.00
2023-02-18T12:44:12.225Z,2.60
2023-02-18T12:45:12.195Z,2.40
2023-02-18T12:46:12.313Z,1.70
2023-02-18T12:47:12.166Z,4.10
2023-02-18T12:48:12.163Z,3.10
2023-02-18T12:49:12.166Z,1.50
2023-02-18T12:50:12.181Z,1.40
2023-02-18T12:51:12.130Z,3.50
2023-02-18T12:52:12.102Z,2.10
2023-02-18T12:53:12.103Z,3.00
2023-02-18T12:54:12.079Z,2.30
2023-02-18T12:55:12.081Z,2.60
2023-02-18T12:56:12.064Z,1.30
2023-02-18T12:57:12.035Z,1.90
2023-02-18T12:58:12.030Z,2.30
2023-02-18T12:59:12.015Z,2.10
2023-02-18T13:00:12.005Z,1.40
2023-02-18T13:01:12.021Z,3.30
2023-02-18T13:02:11.975Z,2.20
2023-02-18T13:03:11.977Z,1.80
2023-02-18T13:04:11.962Z,3.10
2023-02-18T13:05:11.951Z,6.60
2023-02-18T13:06:11.936Z,1.70
2023-02-18T13:07:11.906Z,2.40
2023-02-18T13:08:11.895Z,2.00
2023-02-18T13:09:11.880Z,2.20
2023-02-18T13:10:12.385Z,2.50
2023-02-18T13:11:11.873Z,4.50
2023-02-18T13:12:11.843Z,2.40
2023-02-18T13:13:11.829Z,2.50
2023-02-18T13:14:11.811Z,2.30
2023-02-18T13:15:11.794Z,2.50